Time;durP1;ratioP1;P1;durP2;ratioP2;P2;SDS_P1;SDS_P2;PMS_P1;PMS_P2;Temp;Humidity;BMP_temperature;BMP_pressure;BME280_temperature;BME280_humidity;BME280_pressure;Samples;Min_cycle;Max_cycle;Signal;HPM_P1;HPM_P2
2022/07/18 00:01:32;;;;;;;12.52;6.65;;;;;;;;;;5022834;28;20021;-78
2022/07/18 00:03:58;;;;;;;11.43;6.88;;;;;;;;;;4998333;28;20745;-79
2022/07/18 00:06:23;;;;;;;12.88;8.13;;;;;;;;;;5023903;28;20064;-77
2022/07/18 00:08:48;;;;;;;9.25;6.18;;;;;;;;;;5020317;28;20050;-80
2022/07/18 00:11:13;;;;;;;7.60;5.70;;;;;;;;;;5021715;28;20446;-77
2022/07/18 00:13:38;;;;;;;11.32;5.80;;;;;;;;;;5018690;28;20482;-79
2022/07/18 00:16:04;;;;;;;10.52;6.47;;;;;;;;;;5023042;28;20167;-77
2022/07/18 00:18:29;;;;;;;11.85;6.40;;;;;;;;;;5000689;28;20381;-78
2022/07/18 00:20:55;;;;;;;9.90;6.38;;;;;;;;;;5022881;28;20021;-77
2022/07/18 00:23:20;;;;;;;10.48;6.15;;;;;;;;;;5021555;28;20044;-77
2022/07/18 00:25:45;;;;;;;9.32;5.97;;;;;;;;;;5017244;28;20162;-77
2022/07/18 00:28:11;;;;;;;9.68;6.30;;;;;;;;;;5021365;28;20366;-77
2022/07/18 00:30:37;;;;;;;10.40;5.75;;;;;;;;;;5018749;28;20017;-77
2022/07/18 00:33:02;;;;;;;9.18;5.85;;;;;;;;;;5004339;28;20397;-78
2022/07/18 00:35:27;;;;;;;8.60;5.80;;;;;;;;;;5003386;28;20026;-79
2022/07/18 00:37:52;;;;;;;10.95;6.28;;;;;;;;;;5023432;28;20022;-79
2022/07/18 00:40:18;;;;;;;10.13;5.90;;;;;;;;;;5000122;28;20028;-78
2022/07/18 00:42:43;;;;;;;7.53;5.78;;;;;;;;;;5021844;28;20482;-77
2022/07/18 00:45:09;;;;;;;8.40;6.13;;;;;;;;;;5007114;28;20462;-80
2022/07/18 00:47:34;;;;;;;13.55;5.53;;;;;;;;;;5018723;28;20041;-79
2022/07/18 00:49:59;;;;;;;9.50;6.20;;;;;;;;;;5018748;28;20030;-79
2022/07/18 00:52:24;;;;;;;10.93;6.47;;;;;;;;;;5022036;28;20155;-77
2022/07/18 00:54:50;;;;;;;10.27;6.00;;;;;;;;;;5022658;28;20037;-78
2022/07/18 00:57:15;;;;;;;8.90;5.80;;;;;;;;;;5019034;28;20033;-78
2022/07/18 01:02:26;;;;;;;8.48;5.97;;;;;;;;;;5007708;28;20083;-79
2022/07/18 01:04:51;;;;;;;10.70;6.65;;;;;;;;;;5021029;28;20448;-79
2022/07/18 01:07:16;;;;;;;8.82;6.13;;;;;;;;;;5000840;28;20137;-77
2022/07/18 01:09:41;;;;;;;10.75;7.03;;;;;;;;;;5001875;28;20489;-77
2022/07/18 01:12:07;;;;;;;9.88;6.43;;;;;;;;;;5000091;28;20085;-76
2022/07/18 01:14:32;;;;;;;10.65;6.40;;;;;;;;;;4998736;28;20025;-78
2022/07/18 01:16:58;;;;;;;12.30;6.63;;;;;;;;;;5012992;28;20026;-77
2022/07/18 01:19:23;;;;;;;11.45;6.18;;;;;;;;;;4994418;28;20027;-77
2022/07/18 01:21:48;;;;;;;9.73;6.82;;;;;;;;;;4997864;28;20087;-79
2022/07/18 01:24:17;;;;;;;9.32;6.55;;;;;;;;;;5014241;28;20030;-77
2022/07/18 01:26:42;;;;;;;13.00;7.72;;;;;;;;;;5000639;28;20045;-78
2022/07/18 01:29:07;;;;;;;10.48;7.03;;;;;;;;;;5011403;28;20034;-78
2022/07/18 01:31:33;;;;;;;11.15;7.45;;;;;;;;;;5003278;28;20041;-77
2022/07/18 01:33:59;;;;;;;10.52;6.82;;;;;;;;;;5003003;28;20022;-78
2022/07/18 01:36:24;;;;;;;12.13;7.38;;;;;;;;;;5002749;28;20030;-76
2022/07/18 01:38:49;;;;;;;15.35;7.07;;;;;;;;;;5000568;28;20040;-79
2022/07/18 01:41:18;;;;;;;12.90;7.32;;;;;;;;;;5000750;28;20042;-77
2022/07/18 01:43:43;;;;;;;11.40;8.02;;;;;;;;;;5001002;28;20025;-78
2022/07/18 01:46:09;;;;;;;9.88;6.88;;;;;;;;;;5001888;28;20045;-79
2022/07/18 01:48:36;;;;;;;10.65;6.93;;;;;;;;;;4998910;28;20046;-79
2022/07/18 01:51:01;;;;;;;10.27;7.63;;;;;;;;;;5000865;28;20030;-77
2022/07/18 01:53:27;;;;;;;12.35;6.82;;;;;;;;;;5001765;28;20037;-78
2022/07/18 01:55:53;;;;;;;10.35;6.15;;;;;;;;;;4999876;28;20014;-79
2022/07/18 01:58:18;;;;;;;11.60;7.95;;;;;;;;;;5000283;28;20100;-79
2022/07/18 02:00:43;;;;;;;13.23;8.10;;;;;;;;;;5000587;28;20033;-77
2022/07/18 02:03:08;;;;;;;10.35;7.38;;;;;;;;;;4997057;28;20022;-76
2022/07/18 02:05:34;;;;;;;13.60;7.60;;;;;;;;;;5000820;28;20065;-80
2022/07/18 02:07:59;;;;;;;10.63;7.15;;;;;;;;;;5012375;28;20386;-76
2022/07/18 02:10:24;;;;;;;10.25;6.80;;;;;;;;;;5020610;28;20083;-78
2022/07/18 02:12:49;;;;;;;12.00;7.18;;;;;;;;;;5014657;28;20030;-78
2022/07/18 02:15:15;;;;;;;11.32;7.90;;;;;;;;;;5020957;28;20029;-77
2022/07/18 02:17:40;;;;;;;11.10;7.65;;;;;;;;;;5003467;28;20560;-78
2022/07/18 02:20:07;;;;;;;10.05;6.50;;;;;;;;;;4999870;28;20033;-78
2022/07/18 02:22:32;;;;;;;13.27;7.15;;;;;;;;;;5019069;28;20037;-77
2022/07/18 02:24:58;;;;;;;13.38;8.38;;;;;;;;;;5022253;28;20025;-76
2022/07/18 02:27:26;;;;;;;11.52;6.90;;;;;;;;;;5021018;28;20541;-78
2022/07/18 02:29:55;;;;;;;11.43;7.93;;;;;;;;;;5017490;28;20640;-78
2022/07/18 02:32:22;;;;;;;15.07;8.45;;;;;;;;;;5022562;28;20041;-77
2022/07/18 02:34:47;;;;;;;12.23;7.80;;;;;;;;;;5005339;28;20087;-79
2022/07/18 02:37:12;;;;;;;11.68;7.25;;;;;;;;;;5022826;28;20025;-77
2022/07/18 02:39:37;;;;;;;11.80;8.23;;;;;;;;;;5009354;28;20112;-77
2022/07/18 02:42:03;;;;;;;12.88;7.45;;;;;;;;;;5024190;28;20142;-78
2022/07/18 02:44:28;;;;;;;11.45;7.03;;;;;;;;;;5026206;28;20083;-78
2022/07/18 02:46:53;;;;;;;12.90;7.90;;;;;;;;;;5006786;28;20073;-77
2022/07/18 02:49:27;;;;;;;12.90;7.43;;;;;;;;;;5022027;28;20036;-79
2022/07/18 02:52:00;;;;;;;11.57;7.07;;;;;;;;;;5011633;28;20026;-78
2022/07/18 02:54:27;;;;;;;11.05;7.88;;;;;;;;;;5009357;28;20265;-78
2022/07/18 02:56:52;;;;;;;13.60;7.13;;;;;;;;;;5027311;28;20033;-77
2022/07/18 02:59:18;;;;;;;14.40;7.82;;;;;;;;;;5026186;28;20021;-77
2022/07/18 03:01:43;;;;;;;11.35;8.38;;;;;;;;;;5026760;28;20191;-79
2022/07/18 03:04:08;;;;;;;12.82;8.65;;;;;;;;;;5004580;28;20496;-79
2022/07/18 03:06:33;;;;;;;14.70;7.88;;;;;;;;;;5022964;28;20029;-80
2022/07/18 03:08:59;;;;;;;11.35;7.63;;;;;;;;;;5024117;28;20084;-78
2022/07/18 03:11:24;;;;;;;12.52;7.65;;;;;;;;;;5021998;28;20034;-77
2022/07/18 03:13:49;;;;;;;11.25;7.13;;;;;;;;;;5003754;28;20055;-77
2022/07/18 03:16:14;;;;;;;12.68;7.78;;;;;;;;;;5005886;28;20445;-79
2022/07/18 03:18:39;;;;;;;11.57;7.75;;;;;;;;;;5019534;28;20140;-79
2022/07/18 03:21:05;;;;;;;14.80;8.90;;;;;;;;;;5020678;28;20029;-79
2022/07/18 03:23:30;;;;;;;14.32;8.38;;;;;;;;;;5003848;28;20128;-77
2022/07/18 03:25:55;;;;;;;12.52;8.70;;;;;;;;;;5023393;28;20160;-77
2022/07/18 03:28:20;;;;;;;12.35;8.00;;;;;;;;;;5007905;28;20030;-79
2022/07/18 03:30:45;;;;;;;13.07;8.70;;;;;;;;;;5026691;28;20036;-79
2022/07/18 03:33:11;;;;;;;16.83;8.23;;;;;;;;;;5026239;28;20444;-77
2022/07/18 03:35:36;;;;;;;17.67;8.10;;;;;;;;;;5031682;28;20282;-77
2022/07/18 03:38:01;;;;;;;12.52;8.35;;;;;;;;;;5023409;28;20041;-79
2022/07/18 03:40:26;;;;;;;16.48;9.73;;;;;;;;;;5004926;28;20036;-77
2022/07/18 03:42:52;;;;;;;15.00;8.73;;;;;;;;;;5026408;28;20029;-77
2022/07/18 03:45:17;;;;;;;25.80;9.38;;;;;;;;;;5027707;28;20025;-79
2022/07/18 03:47:45;;;;;;;16.88;10.18;;;;;;;;;;5022960;28;20401;-79
2022/07/18 03:50:10;;;;;;;15.13;9.52;;;;;;;;;;5024479;28;20036;-77
2022/07/18 03:52:35;;;;;;;14.23;9.25;;;;;;;;;;5025152;28;20033;-77
2022/07/18 03:55:01;;;;;;;17.87;9.13;;;;;;;;;;5025475;28;20045;-79
2022/07/18 03:57:27;;;;;;;17.55;10.25;;;;;;;;;;5023620;28;20656;-79
2022/07/18 03:59:52;;;;;;;15.95;9.00;;;;;;;;;;5024691;28;20205;-79
2022/07/18 04:02:17;;;;;;;15.00;8.75;;;;;;;;;;5024910;28;20124;-78
2022/07/18 04:04:42;;;;;;;15.35;8.93;;;;;;;;;;5022294;28;20801;-79
2022/07/18 04:07:10;;;;;;;16.05;9.60;;;;;;;;;;5023119;28;20076;-78
2022/07/18 04:09:36;;;;;;;14.13;9.13;;;;;;;;;;5023371;28;20107;-77
2022/07/18 04:12:01;;;;;;;16.73;9.35;;;;;;;;;;5024766;28;20060;-78
2022/07/18 04:14:26;;;;;;;15.52;10.43;;;;;;;;;;5025473;28;20498;-78
2022/07/18 04:16:51;;;;;;;16.30;8.30;;;;;;;;;;5005972;28;20018;-78
2022/07/18 04:19:17;;;;;;;15.57;8.70;;;;;;;;;;5027111;28;20043;-78
2022/07/18 04:21:42;;;;;;;15.73;9.55;;;;;;;;;;5025686;28;20271;-78
2022/07/18 04:24:08;;;;;;;13.18;8.20;;;;;;;;;;5024774;28;20061;-76
2022/07/18 04:26:33;;;;;;;12.45;8.18;;;;;;;;;;5027482;28;20129;-78
2022/07/18 04:28:58;;;;;;;16.10;9.05;;;;;;;;;;5026691;28;20393;-76
2022/07/18 04:31:23;;;;;;;15.90;9.52;;;;;;;;;;5023098;28;20040;-76
2022/07/18 04:33:49;;;;;;;16.75;9.18;;;;;;;;;;5024002;28;20030;-78
2022/07/18 04:36:14;;;;;;;15.82;8.80;;;;;;;;;;5023238;28;20037;-77
2022/07/18 04:38:39;;;;;;;14.88;8.52;;;;;;;;;;5025821;28;20049;-78
2022/07/18 04:41:05;;;;;;;14.30;8.45;;;;;;;;;;5024209;28;20112;-77
2022/07/18 04:43:31;;;;;;;12.90;7.82;;;;;;;;;;5010096;28;20025;-76
2022/07/18 04:45:56;;;;;;;12.60;7.10;;;;;;;;;;5009259;28;20485;-77
2022/07/18 04:48:21;;;;;;;13.15;7.38;;;;;;;;;;5018655;28;20021;-76
2022/07/18 04:50:50;;;;;;;16.37;8.30;;;;;;;;;;5025663;28;20022;-78
2022/07/18 04:53:18;;;;;;;14.73;7.22;;;;;;;;;;5007273;28;20271;-77
2022/07/18 04:55:43;;;;;;;11.00;7.68;;;;;;;;;;5020478;28;20025;-78
2022/07/18 04:58:09;;;;;;;11.45;6.45;;;;;;;;;;5003945;28;20022;-78
2022/07/18 05:00:34;;;;;;;11.02;7.13;;;;;;;;;;5020635;28;20390;-78
2022/07/18 05:02:59;;;;;;;10.35;6.97;;;;;;;;;;5023310;28;20630;-78
2022/07/18 05:05:26;;;;;;;10.43;6.30;;;;;;;;;;5025247;28;20030;-77
2022/07/18 05:07:51;;;;;;;12.73;6.30;;;;;;;;;;5023082;28;20064;-78
2022/07/18 05:10:18;;;;;;;11.95;6.97;;;;;;;;;;5003505;28;20037;-76
2022/07/18 05:12:45;;;;;;;16.10;8.60;;;;;;;;;;5002578;28;20052;-78
2022/07/18 05:15:11;;;;;;;16.65;7.63;;;;;;;;;;5018487;28;21623;-78
2022/07/18 05:17:37;;;;;;;13.00;7.57;;;;;;;;;;5014431;28;20025;-78
2022/07/18 05:20:06;;;;;;;10.23;7.00;;;;;;;;;;5022151;28;20113;-78
2022/07/18 05:22:32;;;;;;;10.77;6.25;;;;;;;;;;5003223;28;20037;-78
2022/07/18 05:24:57;;;;;;;12.52;6.95;;;;;;;;;;5004865;28;20071;-78
2022/07/18 05:27:22;;;;;;;10.80;6.55;;;;;;;;;;4997154;28;20053;-78
2022/07/18 05:29:48;;;;;;;8.70;5.13;;;;;;;;;;5022724;28;20053;-78
2022/07/18 05:32:13;;;;;;;11.82;6.90;;;;;;;;;;5016530;28;20644;-79
2022/07/18 05:34:38;;;;;;;11.38;7.05;;;;;;;;;;5027561;28;20026;-78
2022/07/18 05:37:03;;;;;;;12.95;7.18;;;;;;;;;;5017566;28;20034;-77
2022/07/18 05:39:29;;;;;;;14.15;7.65;;;;;;;;;;5005179;28;20017;-79
2022/07/18 05:41:57;;;;;;;10.52;6.05;;;;;;;;;;5018392;28;20319;-77
2022/07/18 05:44:22;;;;;;;14.30;6.78;;;;;;;;;;5017665;28;20371;-79
2022/07/18 05:46:47;;;;;;;13.18;7.95;;;;;;;;;;4999914;28;20139;-78
2022/07/18 05:49:13;;;;;;;11.00;7.50;;;;;;;;;;4997957;28;20026;-78
2022/07/18 05:51:39;;;;;;;14.13;7.45;;;;;;;;;;5019707;28;20092;-76
2022/07/18 05:54:04;;;;;;;10.68;7.28;;;;;;;;;;5005243;28;20034;-77
2022/07/18 05:56:29;;;;;;;17.00;7.28;;;;;;;;;;5017610;28;20041;-77
2022/07/18 05:58:54;;;;;;;11.65;6.80;;;;;;;;;;5017798;28;20021;-78
2022/07/18 06:01:20;;;;;;;12.52;6.63;;;;;;;;;;5021286;28;20030;-77
2022/07/18 06:03:46;;;;;;;12.35;5.82;;;;;;;;;;5004586;28;21787;-79
2022/07/18 06:06:11;;;;;;;14.10;7.80;;;;;;;;;;5018185;28;20034;-79
2022/07/18 06:08:39;;;;;;;10.10;5.88;;;;;;;;;;5019501;28;20380;-81
2022/07/18 06:11:06;;;;;;;8.68;5.65;;;;;;;;;;5016163;28;20488;-77
2022/07/18 06:13:32;;;;;;;8.00;4.65;;;;;;;;;;5021538;28;20436;-78
2022/07/18 06:16:01;;;;;;;12.73;6.20;;;;;;;;;;5009362;28;20156;-80
2022/07/18 06:18:26;;;;;;;9.18;4.88;;;;;;;;;;5024545;28;20099;-81
2022/07/18 06:20:52;;;;;;;8.70;4.80;;;;;;;;;;5002323;28;20065;-76
2022/07/18 06:23:17;;;;;;;8.90;5.32;;;;;;;;;;5023268;28;20100;-78
2022/07/18 06:25:42;;;;;;;11.18;5.20;;;;;;;;;;5001029;28;20040;-83
2022/07/18 06:28:07;;;;;;;10.13;5.45;;;;;;;;;;5002690;28;20175;-76
2022/07/18 06:30:32;;;;;;;8.95;4.68;;;;;;;;;;5001319;28;20035;-80
2022/07/18 06:32:58;;;;;;;13.00;5.15;;;;;;;;;;5015853;28;20037;-80
2022/07/18 06:35:23;;;;;;;14.60;4.82;;;;;;;;;;5023553;28;20390;-77
2022/07/18 06:37:48;;;;;;;10.63;6.40;;;;;;;;;;5035019;28;20442;-83
2022/07/18 06:40:14;;;;;;;11.17;4.63;;;;;;;;;;5023815;28;20021;-82
2022/07/18 06:42:39;;;;;;;10.90;4.32;;;;;;;;;;5017922;28;20285;-82
2022/07/18 06:45:07;;;;;;;9.25;4.88;;;;;;;;;;5021764;28;20026;-77
2022/07/18 06:47:33;;;;;;;9.77;5.15;;;;;;;;;;4996482;28;20576;-81
2022/07/18 06:49:58;;;;;;;12.85;5.72;;;;;;;;;;4998730;28;20021;-81
2022/07/18 06:52:23;;;;;;;9.57;4.80;;;;;;;;;;5024892;28;20164;-81
2022/07/18 06:54:48;;;;;;;13.65;5.22;;;;;;;;;;5016309;28;20286;-76
2022/07/18 06:57:14;;;;;;;9.50;4.78;;;;;;;;;;5023154;28;20041;-77
2022/07/18 06:59:39;;;;;;;9.55;4.38;;;;;;;;;;5025052;28;20036;-81
2022/07/18 07:02:04;;;;;;;8.73;4.57;;;;;;;;;;5026810;28;20086;-78
2022/07/18 07:04:29;;;;;;;9.48;5.15;;;;;;;;;;5018632;28;20090;-81
2022/07/18 07:06:55;;;;;;;14.95;5.32;;;;;;;;;;5018561;28;20053;-81
2022/07/18 07:09:20;;;;;;;12.25;4.78;;;;;;;;;;4998024;28;20602;-77
2022/07/18 07:11:45;;;;;;;9.70;4.63;;;;;;;;;;5022596;28;20026;-76
2022/07/18 07:14:10;;;;;;;9.90;5.10;;;;;;;;;;5015975;28;20033;-76
2022/07/18 07:16:35;;;;;;;8.50;5.10;;;;;;;;;;5025213;28;20295;-76
2022/07/18 07:19:01;;;;;;;11.98;4.70;;;;;;;;;;5019450;28;20068;-82
2022/07/18 07:21:26;;;;;;;11.93;5.57;;;;;;;;;;5020318;28;20046;-81
2022/07/18 07:23:52;;;;;;;9.13;5.13;;;;;;;;;;4994974;28;20029;-76
2022/07/18 07:26:17;;;;;;;10.85;5.13;;;;;;;;;;5000461;28;20111;-78
2022/07/18 07:28:42;;;;;;;9.07;5.03;;;;;;;;;;5018470;28;20076;-82
2022/07/18 07:31:07;;;;;;;9.18;4.55;;;;;;;;;;5019687;28;20029;-76
2022/07/18 07:33:33;;;;;;;17.65;5.97;;;;;;;;;;5019483;28;20044;-82
2022/07/18 07:35:58;;;;;;;12.38;5.57;;;;;;;;;;5023367;28;20052;-76
2022/07/18 07:38:27;;;;;;;8.45;4.50;;;;;;;;;;5003976;28;20272;-78
2022/07/18 07:40:53;;;;;;;8.60;5.32;;;;;;;;;;5008681;28;20040;-80
2022/07/18 07:43:19;;;;;;;7.72;4.75;;;;;;;;;;5017945;28;20029;-77
2022/07/18 07:45:48;;;;;;;11.73;4.80;;;;;;;;;;5019657;28;20022;-77
2022/07/18 07:48:14;;;;;;;6.53;4.35;;;;;;;;;;5001538;28;21280;-81
2022/07/18 07:50:39;;;;;;;11.65;5.13;;;;;;;;;;5021818;28;20041;-81
2022/07/18 07:53:05;;;;;;;9.13;4.65;;;;;;;;;;5023150;28;22894;-82
2022/07/18 07:55:30;;;;;;;8.85;5.05;;;;;;;;;;5018767;28;20025;-80
2022/07/18 07:57:55;;;;;;;8.45;4.45;;;;;;;;;;4996779;28;20100;-77
2022/07/18 08:00:20;;;;;;;8.90;4.10;;;;;;;;;;5016865;28;20491;-80
2022/07/18 08:02:53;;;;;;;6.88;3.70;;;;;;;;;;5012861;28;20032;-82
2022/07/18 08:05:18;;;;;;;7.35;4.70;;;;;;;;;;4998797;28;20041;-81
2022/07/18 08:07:44;;;;;;;10.13;4.22;;;;;;;;;;5002576;28;20061;-78
2022/07/18 08:10:09;;;;;;;12.85;4.68;;;;;;;;;;5011237;28;20029;-77
2022/07/18 08:12:34;;;;;;;12.75;4.45;;;;;;;;;;5018150;28;20035;-78
2022/07/18 08:14:59;;;;;;;9.50;4.35;;;;;;;;;;5002102;28;20060;-81
2022/07/18 08:17:25;;;;;;;10.75;4.75;;;;;;;;;;5018118;28;20168;-82
2022/07/18 08:19:50;;;;;;;10.65;4.50;;;;;;;;;;5017890;28;20032;-78
2022/07/18 08:22:15;;;;;;;9.47;4.33;;;;;;;;;;4996338;28;20496;-80
2022/07/18 08:24:40;;;;;;;10.45;3.90;;;;;;;;;;5016452;28;20267;-75
2022/07/18 08:27:06;;;;;;;11.90;4.22;;;;;;;;;;5017475;28;20120;-77
2022/07/18 08:29:31;;;;;;;9.48;4.00;;;;;;;;;;4996502;28;20029;-80
2022/07/18 08:31:56;;;;;;;7.40;4.07;;;;;;;;;;5017097;28;20037;-78
2022/07/18 08:34:22;;;;;;;8.82;4.38;;;;;;;;;;5018575;28;20382;-76
2022/07/18 08:36:47;;;;;;;6.32;4.07;;;;;;;;;;5022174;28;20033;-81
2022/07/18 08:39:12;;;;;;;12.30;3.50;;;;;;;;;;5021430;28;20426;-81
2022/07/18 08:41:39;;;;;;;5.77;3.00;;;;;;;;;;5017855;28;20044;-81
2022/07/18 08:44:05;;;;;;;6.40;3.15;;;;;;;;;;5022575;28;20625;-81
2022/07/18 08:46:31;;;;;;;7.15;3.17;;;;;;;;;;5006884;28;20029;-81
2022/07/18 08:48:56;;;;;;;10.00;4.32;;;;;;;;;;5002153;28;20071;-79
2022/07/18 08:51:22;;;;;;;8.07;3.28;;;;;;;;;;5013376;28;20069;-80
2022/07/18 08:53:48;;;;;;;8.93;3.60;;;;;;;;;;5027242;28;20113;-76
2022/07/18 08:56:13;;;;;;;11.80;3.35;;;;;;;;;;5020562;28;20994;-80
2022/07/18 08:58:39;;;;;;;10.30;3.03;;;;;;;;;;5026609;28;20022;-75
2022/07/18 09:01:04;;;;;;;5.78;2.92;;;;;;;;;;5018220;28;20042;-80
2022/07/18 09:03:29;;;;;;;8.50;3.45;;;;;;;;;;5023956;28;20052;-81
2022/07/18 09:06:05;;;;;;;8.38;3.05;;;;;;;;;;5020728;28;20025;-78
2022/07/18 09:08:30;;;;;;;5.88;2.88;;;;;;;;;;4999715;28;20049;-76
2022/07/18 09:10:58;;;;;;;8.25;2.90;;;;;;;;;;5023392;28;20765;-81
2022/07/18 09:13:24;;;;;;;8.57;3.20;;;;;;;;;;5021243;28;20021;-81
2022/07/18 09:15:58;;;;;;;7.78;3.47;;;;;;;;;;5022528;28;20143;-81
2022/07/18 09:18:30;;;;;;;6.78;3.00;;;;;;;;;;5008115;28;20071;-81
2022/07/18 09:21:03;;;;;;;6.10;2.60;;;;;;;;;;5020106;28;20096;-78
2022/07/18 09:23:32;;;;;;;6.05;2.63;;;;;;;;;;5022186;28;20041;-77
2022/07/18 09:25:57;;;;;;;10.68;2.72;;;;;;;;;;5005965;28;20416;-81
2022/07/18 09:28:22;;;;;;;8.40;4.40;;;;;;;;;;5024314;28;20129;-77
2022/07/18 09:30:48;;;;;;;8.00;3.20;;;;;;;;;;5006074;28;20065;-78
2022/07/18 09:33:15;;;;;;;7.20;2.97;;;;;;;;;;5014619;28;20033;-81
2022/07/18 09:35:44;;;;;;;6.75;3.05;;;;;;;;;;5029555;28;20037;-77
2022/07/18 09:38:17;;;;;;;9.68;3.30;;;;;;;;;;5030579;28;20179;-82
2022/07/18 09:40:43;;;;;;;4.82;3.50;;;;;;;;;;5024379;28;20221;-81
2022/07/18 09:43:10;;;;;;;7.38;3.17;;;;;;;;;;5024117;28;20048;-82
2022/07/18 09:45:41;;;;;;;5.75;3.22;;;;;;;;;;5027577;28;20030;-79
2022/07/18 09:48:11;;;;;;;6.80;2.72;;;;;;;;;;5007955;28;20032;-80
2022/07/18 09:50:36;;;;;;;5.35;3.03;;;;;;;;;;5022840;28;20043;-80
2022/07/18 09:53:03;;;;;;;12.52;3.20;;;;;;;;;;5027552;28;20461;-80
2022/07/18 09:55:30;;;;;;;6.40;3.13;;;;;;;;;;5032298;28;20378;-79
2022/07/18 09:58:01;;;;;;;9.25;3.00;;;;;;;;;;5027970;28;20029;-83
2022/07/18 10:00:27;;;;;;;9.50;3.25;;;;;;;;;;5025983;28;20088;-81
2022/07/18 10:02:52;;;;;;;4.40;2.85;;;;;;;;;;5025632;28;20079;-84
2022/07/18 10:05:17;;;;;;;5.45;2.65;;;;;;;;;;5030786;28;20025;-83
2022/07/18 10:07:43;;;;;;;4.75;2.45;;;;;;;;;;5029367;28;20049;-85
2022/07/18 10:10:08;;;;;;;10.57;3.55;;;;;;;;;;5024353;28;20504;-84
2022/07/18 10:12:34;;;;;;;5.68;2.45;;;;;;;;;;5008250;28;20485;-82
2022/07/18 10:14:59;;;;;;;7.88;2.88;;;;;;;;;;5008842;28;20025;-85
2022/07/18 10:17:24;;;;;;;8.38;2.83;;;;;;;;;;5025593;28;20109;-85
2022/07/18 10:19:49;;;;;;;4.45;2.95;;;;;;;;;;5027834;28;20021;-85
2022/07/18 10:22:16;;;;;;;4.70;2.20;;;;;;;;;;5012339;28;20044;-84
2022/07/18 10:24:41;;;;;;;4.72;2.28;;;;;;;;;;5029621;28;20041;-81
2022/07/18 10:27:17;;;;;;;4.90;2.25;;;;;;;;;;5008422;28;20397;-85
2022/07/18 10:30:01;;;;;;;4.65;2.60;;;;;;;;;;5023638;28;20121;-82
2022/07/18 10:32:33;;;;;;;3.08;2.25;;;;;;;;;;5005325;28;20029;-80
2022/07/18 10:34:58;;;;;;;;;;;;;;;;;;5009073;28;20021;-82
2022/07/18 10:37:24;;;;;;;4.90;2.45;;;;;;;;;;5025303;28;19927;-85
2022/07/18 10:39:50;;;;;;;6.30;2.13;;;;;;;;;;5022199;28;20124;-84
2022/07/18 10:42:18;;;;;;;4.18;2.42;;;;;;;;;;5006030;28;20133;-85
2022/07/18 10:44:44;;;;;;;4.43;2.83;;;;;;;;;;5007665;28;20013;-80
2022/07/18 10:47:24;;;;;;;6.43;3.03;;;;;;;;;;5019385;28;20029;-80
2022/07/18 10:49:51;;;;;;;5.28;2.55;;;;;;;;;;5015719;28;20053;-81
2022/07/18 10:52:23;;;;;;;11.93;3.45;;;;;;;;;;5031010;28;20541;-80
2022/07/18 10:55:01;;;;;;;5.70;3.08;;;;;;;;;;5001058;28;20669;-84
2022/07/18 10:57:26;;;;;;;5.75;3.35;;;;;;;;;;5022412;28;20037;-83
2022/07/18 11:00:05;;;;;;;10.38;4.28;;;;;;;;;;5006273;28;20026;-80
2022/07/18 11:02:35;;;;;;;18.10;5.13;;;;;;;;;;5005210;28;20234;-81
2022/07/18 11:05:01;;;;;;;9.93;3.75;;;;;;;;;;5026813;28;20025;-83
2022/07/18 11:07:27;;;;;;;22.23;5.38;;;;;;;;;;5025625;28;20052;-84
2022/07/18 11:09:52;;;;;;;9.95;4.10;;;;;;;;;;5023864;28;20108;-83
2022/07/18 11:12:20;;;;;;;20.42;6.30;;;;;;;;;;5023301;28;20462;-81
2022/07/18 11:15:06;;;;;;;7.95;4.05;;;;;;;;;;5013102;28;21816;-84
2022/07/18 11:17:50;;;;;;;18.27;5.90;;;;;;;;;;5012720;28;20034;-84
2022/07/18 11:20:22;;;;;;;12.82;4.38;;;;;;;;;;5034231;28;20025;-85
2022/07/18 11:22:48;;;;;;;9.55;3.67;;;;;;;;;;5026783;28;20093;-85
2022/07/18 11:25:13;;;;;;;16.25;4.75;;;;;;;;;;5016361;28;20125;-85
2022/07/18 11:27:39;;;;;;;22.85;5.53;;;;;;;;;;5010021;28;20021;-85
2022/07/18 11:30:05;;;;;;;14.57;4.85;;;;;;;;;;5011015;28;20129;-84
2022/07/18 11:32:30;;;;;;;16.65;4.88;;;;;;;;;;5006860;28;20171;-80
2022/07/18 11:34:56;;;;;;;8.25;3.20;;;;;;;;;;5031509;28;20037;-85
2022/07/18 11:37:21;;;;;;;8.93;3.63;;;;;;;;;;5010086;28;20030;-85
2022/07/18 11:39:46;;;;;;;13.65;4.10;;;;;;;;;;5015741;28;20540;-80
2022/07/18 11:42:12;;;;;;;11.45;4.35;;;;;;;;;;5030692;28;20493;-80
2022/07/18 11:44:39;;;;;;;10.40;4.43;;;;;;;;;;5029840;28;20060;-80
2022/07/18 11:47:08;;;;;;;5.78;3.22;;;;;;;;;;5024239;28;20033;-80
2022/07/18 11:49:34;;;;;;;5.90;3.25;;;;;;;;;;5004093;28;20033;-80
2022/07/18 11:52:00;;;;;;;6.30;3.35;;;;;;;;;;5009137;28;20706;-84
2022/07/18 11:54:25;;;;;;;7.45;3.60;;;;;;;;;;5025677;28;20128;-85
2022/07/18 11:56:52;;;;;;;7.22;3.55;;;;;;;;;;5039971;28;20191;-84
2022/07/18 11:59:17;;;;;;;7.50;3.60;;;;;;;;;;5029228;28;20026;-84
2022/07/18 12:01:44;;;;;;;11.17;3.63;;;;;;;;;;5012195;28;20033;-84
2022/07/18 12:04:16;;;;;;;5.38;3.25;;;;;;;;;;5023325;28;20274;-84
2022/07/18 12:06:41;;;;;;;6.80;3.60;;;;;;;;;;5020515;28;20750;-85
2022/07/18 12:09:06;;;;;;;6.97;2.97;;;;;;;;;;5009549;28;20032;-84
2022/07/18 12:11:36;;;;;;;10.57;3.50;;;;;;;;;;5008199;28;20300;-81
2022/07/18 12:14:07;;;;;;;6.18;3.45;;;;;;;;;;5005363;28;20039;-80
2022/07/18 12:16:40;;;;;;;7.22;3.25;;;;;;;;;;5024618;28;20061;-80
2022/07/18 12:19:07;;;;;;;6.25;3.75;;;;;;;;;;5025901;28;20072;-84
2022/07/18 12:21:39;;;;;;;6.82;4.32;;;;;;;;;;5022568;28;20065;-84
2022/07/18 12:24:23;;;;;;;6.57;3.70;;;;;;;;;;5024172;28;20022;-84
2022/07/18 12:26:48;;;;;;;3.45;3.13;;;;;;;;;;5024758;28;20033;-84
2022/07/18 12:29:14;;;;;;;5.50;3.35;;;;;;;;;;5031994;28;20033;-80
2022/07/18 12:31:43;;;;;;;12.18;3.65;;;;;;;;;;5019199;28;20030;-80
2022/07/18 12:34:09;;;;;;;5.15;2.92;;;;;;;;;;5021151;28;20033;-84
2022/07/18 12:36:49;;;;;;;20.30;5.03;;;;;;;;;;5005723;28;20034;-81
2022/07/18 12:39:24;;;;;;;9.48;4.47;;;;;;;;;;5025183;28;20014;-84
2022/07/18 12:41:49;;;;;;;8.35;3.60;;;;;;;;;;5020524;28;20055;-81
2022/07/18 12:44:14;;;;;;;6.77;3.67;;;;;;;;;;4999343;28;20040;-80
2022/07/18 12:46:40;;;;;;;8.07;3.83;;;;;;;;;;5024391;28;20640;-82
2022/07/18 12:49:05;;;;;;;7.03;3.73;;;;;;;;;;5020816;28;20027;-81
2022/07/18 12:51:30;;;;;;;8.80;4.07;;;;;;;;;;5023321;28;20750;-80
2022/07/18 12:53:55;;;;;;;4.32;3.42;;;;;;;;;;5020818;28;20045;-81
2022/07/18 12:56:20;;;;;;;7.80;3.83;;;;;;;;;;4996349;28;20152;-80
2022/07/18 12:58:46;;;;;;;7.77;3.37;;;;;;;;;;5023674;28;20022;-81
2022/07/18 13:01:11;;;;;;;7.75;3.92;;;;;;;;;;5024490;28;20112;-84
2022/07/18 13:03:36;;;;;;;5.55;2.90;;;;;;;;;;5005941;28;20029;-81
2022/07/18 13:06:02;;;;;;;9.65;3.63;;;;;;;;;;5021779;28;20029;-81
2022/07/18 13:08:27;;;;;;;5.75;3.60;;;;;;;;;;5027389;28;20057;-81
2022/07/18 13:10:52;;;;;;;7.75;3.80;;;;;;;;;;5027819;28;20435;-85
2022/07/18 13:13:18;;;;;;;7.90;3.92;;;;;;;;;;5025300;28;20021;-81
2022/07/18 13:15:43;;;;;;;7.80;3.78;;;;;;;;;;5023317;28;20421;-85
2022/07/18 13:18:08;;;;;;;6.35;3.58;;;;;;;;;;5004105;28;20086;-80
2022/07/18 13:20:34;;;;;;;7.90;3.77;;;;;;;;;;5019125;28;20025;-80
2022/07/18 13:23:04;;;;;;;7.10;3.38;;;;;;;;;;5007783;28;20308;-84
2022/07/18 13:25:29;;;;;;;7.43;3.72;;;;;;;;;;5002503;28;20021;-84
2022/07/18 13:27:54;;;;;;;6.10;3.35;;;;;;;;;;5023530;28;20022;-84
2022/07/18 13:30:20;;;;;;;8.40;3.30;;;;;;;;;;5022880;28;20068;-81
2022/07/18 13:32:45;;;;;;;15.43;4.28;;;;;;;;;;5020086;28;20088;-80
2022/07/18 13:35:11;;;;;;;11.07;3.88;;;;;;;;;;5005858;28;20401;-85
2022/07/18 13:37:44;;;;;;;8.25;3.45;;;;;;;;;;5024153;28;20044;-84
2022/07/18 13:40:10;;;;;;;7.47;3.70;;;;;;;;;;5006390;28;20466;-80
2022/07/18 13:42:36;;;;;;;9.45;3.92;;;;;;;;;;5025931;28;20032;-84
2022/07/18 13:45:01;;;;;;;6.60;3.80;;;;;;;;;;5019526;28;20430;-79
2022/07/18 13:47:26;;;;;;;6.07;3.30;;;;;;;;;;5010228;28;20076;-83
2022/07/18 13:49:51;;;;;;;7.22;3.67;;;;;;;;;;5022279;28;20369;-83
2022/07/18 13:52:16;;;;;;;6.93;3.45;;;;;;;;;;4997966;28;20132;-80
2022/07/18 13:54:42;;;;;;;8.00;4.10;;;;;;;;;;5002830;28;20049;-82
2022/07/18 13:57:07;;;;;;;6.05;3.45;;;;;;;;;;5013759;28;20580;-84
2022/07/18 13:59:32;;;;;;;6.50;3.70;;;;;;;;;;5023423;28;20092;-83
2022/07/18 14:01:58;;;;;;;7.80;3.80;;;;;;;;;;5005716;28;20029;-84
2022/07/18 14:04:23;;;;;;;5.27;3.83;;;;;;;;;;5019468;28;20774;-82
2022/07/18 14:06:48;;;;;;;7.13;3.47;;;;;;;;;;5019559;28;20275;-80
2022/07/18 14:09:14;;;;;;;10.55;4.00;;;;;;;;;;5026438;28;20087;-83
2022/07/18 14:11:39;;;;;;;4.75;3.40;;;;;;;;;;5027736;28;20037;-83
2022/07/18 14:14:04;;;;;;;7.17;4.30;;;;;;;;;;5026036;28;20366;-81
2022/07/18 14:16:30;;;;;;;6.47;3.92;;;;;;;;;;5020214;28;20271;-80
2022/07/18 14:18:56;;;;;;;5.03;3.33;;;;;;;;;;5021693;28;20057;-80
2022/07/18 14:21:24;;;;;;;7.07;3.83;;;;;;;;;;5011435;28;20041;-80
2022/07/18 14:23:49;;;;;;;7.82;3.30;;;;;;;;;;5004583;28;20021;-84
2022/07/18 14:26:15;;;;;;;6.97;4.68;;;;;;;;;;5003981;28;20134;-84
2022/07/18 14:28:40;;;;;;;6.65;3.92;;;;;;;;;;5006874;28;20014;-82
2022/07/18 14:31:05;;;;;;;6.57;3.60;;;;;;;;;;5022550;28;20025;-83
2022/07/18 14:33:30;;;;;;;7.68;3.28;;;;;;;;;;5003717;28;20045;-81